sensor_id;sensor_type;location;lat;lon;timestamp;P1;durP1;ratioP1;P2;durP2;ratioP2
65018;SDS011;66069;51.164;-114.452;2022-12-29T00:01:38;28.38;;;11.07;;
65018;SDS011;66069;51.164;-114.452;2022-12-29T00:04:04;28.63;;;10.77;;
65018;SDS011;66069;51.164;-114.452;2022-12-29T00:06:31;22.33;;;9.70;;
65018;SDS011;66069;51.164;-114.452;2022-12-29T00:08:57;22.98;;;9.55;;
65018;SDS011;66069;51.164;-114.452;2022-12-29T00:11:25;26.48;;;9.80;;
65018;SDS011;66069;51.164;-114.452;2022-12-29T00:13:53;23.58;;;9.75;;
65018;SDS011;66069;51.164;-114.452;2022-12-29T00:16:39;22.50;;;8.98;;
65018;SDS011;66069;51.164;-114.452;2022-12-29T00:19:08;22.38;;;8.27;;
65018;SDS011;66069;51.164;-114.452;2022-12-29T00:21:53;20.38;;;8.75;;
65018;SDS011;66069;51.164;-114.452;2022-12-29T00:24:38;22.42;;;8.73;;
65018;SDS011;66069;51.164;-114.452;2022-12-29T00:27:22;23.55;;;7.80;;
65018;SDS011;66069;51.164;-114.452;2022-12-29T00:30:11;21.13;;;7.45;;
65018;SDS011;66069;51.164;-114.452;2022-12-29T00:32:58;18.20;;;7.90;;
65018;SDS011;66069;51.164;-114.452;2022-12-29T00:35:47;22.05;;;7.30;;
65018;SDS011;66069;51.164;-114.452;2022-12-29T00:38:19;18.55;;;6.63;;
65018;SDS011;66069;51.164;-114.452;2022-12-29T00:41:05;16.77;;;6.85;;
65018;SDS011;66069;51.164;-114.452;2022-12-29T00:43:50;20.33;;;7.20;;
65018;SDS011;66069;51.164;-114.452;2022-12-29T00:46:35;15.20;;;6.53;;
65018;SDS011;66069;51.164;-114.452;2022-12-29T00:49:03;14.20;;;6.47;;
65018;SDS011;66069;51.164;-114.452;2022-12-29T00:51:49;16.63;;;6.18;;
65018;SDS011;66069;51.164;-114.452;2022-12-29T00:54:16;13.95;;;5.53;;
65018;SDS011;66069;51.164;-114.452;2022-12-29T00:56:45;17.33;;;6.28;;
65018;SDS011;66069;51.164;-114.452;2022-12-29T00:59:14;11.07;;;5.00;;
65018;SDS011;66069;51.164;-114.452;2022-12-29T01:01:41;15.32;;;5.55;;
65018;SDS011;66069;51.164;-114.452;2022-12-29T01:04:08;10.45;;;4.70;;
65018;SDS011;66069;51.164;-114.452;2022-12-29T01:06:35;12.75;;;4.78;;
65018;SDS011;66069;51.164;-114.452;2022-12-29T01:09:03;11.05;;;5.25;;
65018;SDS011;66069;51.164;-114.452;2022-12-29T01:11:48;10.93;;;5.22;;
65018;SDS011;66069;51.164;-114.452;2022-12-29T01:14:14;9.23;;;4.35;;
65018;SDS011;66069;51.164;-114.452;2022-12-29T01:16:41;11.38;;;4.85;;
65018;SDS011;66069;51.164;-114.452;2022-12-29T01:19:08;10.93;;;4.38;;
65018;SDS011;66069;51.164;-114.452;2022-12-29T01:21:34;10.05;;;4.88;;
65018;SDS011;66069;51.164;-114.452;2022-12-29T01:24:00;10.43;;;4.95;;
65018;SDS011;66069;51.164;-114.452;2022-12-29T01:26:27;9.05;;;4.28;;
65018;SDS011;66069;51.164;-114.452;2022-12-29T01:28:53;10.02;;;3.92;;
65018;SDS011;66069;51.164;-114.452;2022-12-29T01:31:19;9.55;;;4.53;;
65018;SDS011;66069;51.164;-114.452;2022-12-29T01:33:46;9.05;;;4.20;;
65018;SDS011;66069;51.164;-114.452;2022-12-29T01:36:13;8.27;;;4.05;;
65018;SDS011;66069;51.164;-114.452;2022-12-29T01:38:41;11.18;;;3.85;;
65018;SDS011;66069;51.164;-114.452;2022-12-29T01:41:09;10.30;;;4.07;;
65018;SDS011;66069;51.164;-114.452;2022-12-29T01:46:31;8.90;;;4.30;;
65018;SDS011;66069;51.164;-114.452;2022-12-29T01:51:38;11.88;;;4.82;;
65018;SDS011;66069;51.164;-114.452;2022-12-29T01:54:18;8.73;;;4.18;;
65018;SDS011;66069;51.164;-114.452;2022-12-29T01:56:51;7.95;;;3.80;;
65018;SDS011;66069;51.164;-114.452;2022-12-29T01:59:20;10.55;;;4.10;;
65018;SDS011;66069;51.164;-114.452;2022-12-29T02:01:50;9.27;;;3.60;;
65018;SDS011;66069;51.164;-114.452;2022-12-29T02:04:16;10.45;;;4.22;;
65018;SDS011;66069;51.164;-114.452;2022-12-29T02:06:46;10.02;;;3.90;;
65018;SDS011;66069;51.164;-114.452;2022-12-29T02:09:17;10.00;;;3.83;;
65018;SDS011;66069;51.164;-114.452;2022-12-29T02:11:44;11.80;;;4.00;;
65018;SDS011;66069;51.164;-114.452;2022-12-29T02:14:12;8.63;;;3.72;;
65018;SDS011;66069;51.164;-114.452;2022-12-29T02:28:27;8.07;;;3.90;;
65018;SDS011;66069;51.164;-114.452;2022-12-29T02:33:37;8.73;;;3.78;;
65018;SDS011;66069;51.164;-114.452;2022-12-29T02:36:45;9.73;;;3.40;;
65018;SDS011;66069;51.164;-114.452;2022-12-29T02:39:35;8.73;;;3.80;;
65018;SDS011;66069;51.164;-114.452;2022-12-29T02:53:31;9.25;;;3.80;;
65018;SDS011;66069;51.164;-114.452;2022-12-29T02:56:19;6.30;;;3.38;;
65018;SDS011;66069;51.164;-114.452;2022-12-29T02:58:46;7.97;;;3.17;;
65018;SDS011;66069;51.164;-114.452;2022-12-29T03:06:33;8.10;;;3.55;;
65018;SDS011;66069;51.164;-114.452;2022-12-29T03:12:21;8.85;;;3.50;;
65018;SDS011;66069;51.164;-114.452;2022-12-29T03:15:22;7.95;;;3.55;;
65018;SDS011;66069;51.164;-114.452;2022-12-29T03:18:13;7.43;;;3.22;;
65018;SDS011;66069;51.164;-114.452;2022-12-29T03:20:58;6.13;;;3.20;;
65018;SDS011;66069;51.164;-114.452;2022-12-29T03:23:30;6.78;;;3.10;;
65018;SDS011;66069;51.164;-114.452;2022-12-29T03:25:59;7.03;;;3.20;;
65018;SDS011;66069;51.164;-114.452;2022-12-29T03:28:31;9.68;;;3.60;;
65018;SDS011;66069;51.164;-114.452;2022-12-29T03:31:02;7.10;;;2.90;;
65018;SDS011;66069;51.164;-114.452;2022-12-29T03:33:30;6.70;;;3.03;;
65018;SDS011;66069;51.164;-114.452;2022-12-29T03:35:59;6.82;;;3.08;;
65018;SDS011;66069;51.164;-114.452;2022-12-29T03:38:35;6.97;;;3.15;;
65018;SDS011;66069;51.164;-114.452;2022-12-29T03:41:03;8.43;;;3.50;;
65018;SDS011;66069;51.164;-114.452;2022-12-29T03:43:31;9.65;;;2.88;;
65018;SDS011;66069;51.164;-114.452;2022-12-29T03:45:58;6.20;;;2.97;;
65018;SDS011;66069;51.164;-114.452;2022-12-29T03:48:25;6.38;;;2.78;;
65018;SDS011;66069;51.164;-114.452;2022-12-29T03:50:51;6.13;;;2.97;;
65018;SDS011;66069;51.164;-114.452;2022-12-29T03:53:18;7.60;;;3.00;;
65018;SDS011;66069;51.164;-114.452;2022-12-29T03:55:44;6.90;;;2.65;;
65018;SDS011;66069;51.164;-114.452;2022-12-29T03:58:10;6.63;;;3.28;;
65018;SDS011;66069;51.164;-114.452;2022-12-29T04:00:37;7.20;;;3.33;;
65018;SDS011;66069;51.164;-114.452;2022-12-29T04:03:03;8.15;;;3.40;;
65018;SDS011;66069;51.164;-114.452;2022-12-29T04:05:29;7.90;;;3.40;;
65018;SDS011;66069;51.164;-114.452;2022-12-29T04:07:56;7.45;;;3.08;;
65018;SDS011;66069;51.164;-114.452;2022-12-29T04:10:22;5.28;;;2.70;;
65018;SDS011;66069;51.164;-114.452;2022-12-29T04:12:49;6.80;;;2.92;;
65018;SDS011;66069;51.164;-114.452;2022-12-29T04:15:15;7.45;;;2.88;;
65018;SDS011;66069;51.164;-114.452;2022-12-29T04:17:42;6.38;;;2.90;;
65018;SDS011;66069;51.164;-114.452;2022-12-29T04:20:08;7.10;;;2.83;;
65018;SDS011;66069;51.164;-114.452;2022-12-29T04:23:02;6.25;;;2.80;;
65018;SDS011;66069;51.164;-114.452;2022-12-29T04:25:30;6.03;;;2.75;;
65018;SDS011;66069;51.164;-114.452;2022-12-29T04:27:57;5.72;;;2.63;;
65018;SDS011;66069;51.164;-114.452;2022-12-29T04:30:24;7.32;;;2.90;;
65018;SDS011;66069;51.164;-114.452;2022-12-29T04:32:51;5.03;;;2.50;;
65018;SDS011;66069;51.164;-114.452;2022-12-29T04:35:18;6.60;;;2.65;;
65018;SDS011;66069;51.164;-114.452;2022-12-29T04:37:44;6.55;;;3.28;;
65018;SDS011;66069;51.164;-114.452;2022-12-29T04:40:10;5.80;;;2.80;;
65018;SDS011;66069;51.164;-114.452;2022-12-29T04:42:37;7.45;;;2.88;;
65018;SDS011;66069;51.164;-114.452;2022-12-29T04:45:03;7.97;;;2.55;;
65018;SDS011;66069;51.164;-114.452;2022-12-29T04:47:31;8.63;;;2.97;;
65018;SDS011;66069;51.164;-114.452;2022-12-29T04:49:57;5.43;;;2.60;;
65018;SDS011;66069;51.164;-114.452;2022-12-29T04:52:23;6.05;;;2.70;;
65018;SDS011;66069;51.164;-114.452;2022-12-29T04:54:49;5.70;;;2.47;;
65018;SDS011;66069;51.164;-114.452;2022-12-29T04:57:16;6.25;;;2.67;;
65018;SDS011;66069;51.164;-114.452;2022-12-29T04:59:42;6.15;;;3.13;;
65018;SDS011;66069;51.164;-114.452;2022-12-29T05:02:08;8.05;;;3.17;;
65018;SDS011;66069;51.164;-114.452;2022-12-29T05:04:35;6.90;;;2.97;;
65018;SDS011;66069;51.164;-114.452;2022-12-29T05:07:01;6.97;;;2.88;;
65018;SDS011;66069;51.164;-114.452;2022-12-29T05:09:27;7.15;;;2.42;;
65018;SDS011;66069;51.164;-114.452;2022-12-29T05:11:55;4.50;;;2.35;;
65018;SDS011;66069;51.164;-114.452;2022-12-29T05:14:21;6.85;;;2.85;;
65018;SDS011;66069;51.164;-114.452;2022-12-29T05:16:47;7.13;;;2.60;;
65018;SDS011;66069;51.164;-114.452;2022-12-29T05:19:14;5.53;;;2.70;;
65018;SDS011;66069;51.164;-114.452;2022-12-29T05:21:40;5.72;;;2.35;;
65018;SDS011;66069;51.164;-114.452;2022-12-29T05:24:06;6.07;;;2.40;;
65018;SDS011;66069;51.164;-114.452;2022-12-29T05:26:33;4.90;;;2.50;;
65018;SDS011;66069;51.164;-114.452;2022-12-29T05:28:59;7.15;;;2.80;;
65018;SDS011;66069;51.164;-114.452;2022-12-29T05:31:26;6.63;;;2.63;;
65018;SDS011;66069;51.164;-114.452;2022-12-29T05:33:52;5.05;;;2.05;;
65018;SDS011;66069;51.164;-114.452;2022-12-29T05:36:19;6.35;;;3.17;;
65018;SDS011;66069;51.164;-114.452;2022-12-29T05:38:45;5.72;;;2.72;;
65018;SDS011;66069;51.164;-114.452;2022-12-29T05:41:12;7.32;;;2.40;;
65018;SDS011;66069;51.164;-114.452;2022-12-29T05:43:38;6.95;;;2.80;;
65018;SDS011;66069;51.164;-114.452;2022-12-29T05:46:04;5.20;;;2.13;;
65018;SDS011;66069;51.164;-114.452;2022-12-29T05:48:31;6.20;;;2.35;;
65018;SDS011;66069;51.164;-114.452;2022-12-29T05:50:57;7.15;;;2.88;;
65018;SDS011;66069;51.164;-114.452;2022-12-29T05:53:23;6.68;;;2.70;;
65018;SDS011;66069;51.164;-114.452;2022-12-29T05:55:50;5.93;;;2.58;;
65018;SDS011;66069;51.164;-114.452;2022-12-29T05:58:17;5.82;;;2.85;;
65018;SDS011;66069;51.164;-114.452;2022-12-29T06:00:43;5.10;;;2.17;;
65018;SDS011;66069;51.164;-114.452;2022-12-29T06:03:09;5.90;;;2.28;;
65018;SDS011;66069;51.164;-114.452;2022-12-29T06:05:36;5.75;;;2.28;;
65018;SDS011;66069;51.164;-114.452;2022-12-29T06:08:02;6.20;;;2.30;;
65018;SDS011;66069;51.164;-114.452;2022-12-29T06:10:28;5.43;;;2.05;;
65018;SDS011;66069;51.164;-114.452;2022-12-29T06:12:55;5.55;;;1.95;;
65018;SDS011;66069;51.164;-114.452;2022-12-29T06:15:21;5.15;;;2.05;;
65018;SDS011;66069;51.164;-114.452;2022-12-29T06:17:48;4.45;;;2.05;;
65018;SDS011;66069;51.164;-114.452;2022-12-29T06:20:14;4.57;;;2.10;;
65018;SDS011;66069;51.164;-114.452;2022-12-29T06:22:40;4.65;;;2.33;;
65018;SDS011;66069;51.164;-114.452;2022-12-29T06:25:07;5.75;;;2.13;;
65018;SDS011;66069;51.164;-114.452;2022-12-29T06:27:33;3.85;;;1.70;;
65018;SDS011;66069;51.164;-114.452;2022-12-29T06:30:00;5.80;;;2.30;;
65018;SDS011;66069;51.164;-114.452;2022-12-29T06:32:26;6.10;;;2.22;;
65018;SDS011;66069;51.164;-114.452;2022-12-29T06:34:53;5.63;;;2.33;;
65018;SDS011;66069;51.164;-114.452;2022-12-29T06:37:19;3.90;;;1.77;;
65018;SDS011;66069;51.164;-114.452;2022-12-29T06:39:45;4.32;;;1.92;;
65018;SDS011;66069;51.164;-114.452;2022-12-29T06:42:11;4.97;;;2.47;;
65018;SDS011;66069;51.164;-114.452;2022-12-29T06:44:38;4.70;;;1.98;;
65018;SDS011;66069;51.164;-114.452;2022-12-29T06:47:04;5.07;;;1.95;;
65018;SDS011;66069;51.164;-114.452;2022-12-29T06:49:30;4.50;;;2.20;;
65018;SDS011;66069;51.164;-114.452;2022-12-29T06:51:56;4.72;;;1.98;;
65018;SDS011;66069;51.164;-114.452;2022-12-29T06:54:25;5.10;;;2.00;;
65018;SDS011;66069;51.164;-114.452;2022-12-29T06:56:51;4.47;;;1.90;;
65018;SDS011;66069;51.164;-114.452;2022-12-29T06:59:17;4.78;;;2.25;;
65018;SDS011;66069;51.164;-114.452;2022-12-29T07:01:43;5.38;;;1.85;;
65018;SDS011;66069;51.164;-114.452;2022-12-29T07:04:10;4.82;;;2.17;;
65018;SDS011;66069;51.164;-114.452;2022-12-29T07:06:36;3.97;;;1.73;;
65018;SDS011;66069;51.164;-114.452;2022-12-29T07:09:02;4.03;;;1.92;;
65018;SDS011;66069;51.164;-114.452;2022-12-29T07:11:29;5.43;;;2.05;;
65018;SDS011;66069;51.164;-114.452;2022-12-29T07:13:55;5.25;;;2.08;;
65018;SDS011;66069;51.164;-114.452;2022-12-29T07:16:22;4.63;;;1.95;;
65018;SDS011;66069;51.164;-114.452;2022-12-29T07:18:48;6.15;;;2.20;;
65018;SDS011;66069;51.164;-114.452;2022-12-29T07:21:14;4.35;;;1.92;;
65018;SDS011;66069;51.164;-114.452;2022-12-29T07:23:41;3.90;;;1.98;;
65018;SDS011;66069;51.164;-114.452;2022-12-29T07:26:08;3.33;;;1.67;;
65018;SDS011;66069;51.164;-114.452;2022-12-29T07:28:37;5.85;;;2.28;;
65018;SDS011;66069;51.164;-114.452;2022-12-29T07:31:04;3.50;;;1.92;;
65018;SDS011;66069;51.164;-114.452;2022-12-29T07:33:32;5.30;;;2.03;;
65018;SDS011;66069;51.164;-114.452;2022-12-29T07:35:58;5.13;;;2.00;;
65018;SDS011;66069;51.164;-114.452;2022-12-29T07:38:25;4.38;;;1.95;;
65018;SDS011;66069;51.164;-114.452;2022-12-29T07:40:57;4.85;;;1.92;;
65018;SDS011;66069;51.164;-114.452;2022-12-29T07:43:24;4.97;;;2.15;;
65018;SDS011;66069;51.164;-114.452;2022-12-29T07:45:51;3.78;;;1.70;;
65018;SDS011;66069;51.164;-114.452;2022-12-29T07:48:17;5.95;;;2.08;;
65018;SDS011;66069;51.164;-114.452;2022-12-29T07:50:43;3.97;;;2.00;;
65018;SDS011;66069;51.164;-114.452;2022-12-29T07:53:10;4.50;;;2.00;;
65018;SDS011;66069;51.164;-114.452;2022-12-29T07:55:36;4.03;;;1.75;;
65018;SDS011;66069;51.164;-114.452;2022-12-29T07:58:02;4.18;;;1.65;;
65018;SDS011;66069;51.164;-114.452;2022-12-29T08:00:29;4.35;;;2.03;;
65018;SDS011;66069;51.164;-114.452;2022-12-29T08:02:55;4.20;;;1.92;;
65018;SDS011;66069;51.164;-114.452;2022-12-29T08:05:21;3.45;;;1.75;;
65018;SDS011;66069;51.164;-114.452;2022-12-29T08:07:48;3.95;;;1.83;;
65018;SDS011;66069;51.164;-114.452;2022-12-29T08:10:14;4.10;;;1.80;;
65018;SDS011;66069;51.164;-114.452;2022-12-29T08:12:44;3.80;;;1.70;;
65018;SDS011;66069;51.164;-114.452;2022-12-29T08:15:11;4.80;;;1.80;;
65018;SDS011;66069;51.164;-114.452;2022-12-29T08:17:37;3.05;;;1.60;;
65018;SDS011;66069;51.164;-114.452;2022-12-29T08:20:04;3.45;;;1.83;;
65018;SDS011;66069;51.164;-114.452;2022-12-29T08:22:31;4.50;;;2.28;;
65018;SDS011;66069;51.164;-114.452;2022-12-29T08:24:57;4.88;;;1.88;;
65018;SDS011;66069;51.164;-114.452;2022-12-29T08:27:23;3.67;;;1.52;;
65018;SDS011;66069;51.164;-114.452;2022-12-29T08:29:50;4.13;;;1.73;;
65018;SDS011;66069;51.164;-114.452;2022-12-29T08:32:17;5.75;;;2.20;;
65018;SDS011;66069;51.164;-114.452;2022-12-29T08:34:44;3.78;;;2.00;;
65018;SDS011;66069;51.164;-114.452;2022-12-29T08:37:10;4.78;;;1.88;;
65018;SDS011;66069;51.164;-114.452;2022-12-29T08:39:36;3.63;;;1.58;;
65018;SDS011;66069;51.164;-114.452;2022-12-29T08:42:03;4.13;;;1.60;;
65018;SDS011;66069;51.164;-114.452;2022-12-29T08:44:29;4.70;;;1.90;;
65018;SDS011;66069;51.164;-114.452;2022-12-29T08:46:55;4.85;;;1.90;;
65018;SDS011;66069;51.164;-114.452;2022-12-29T08:49:21;3.70;;;1.80;;
65018;SDS011;66069;51.164;-114.452;2022-12-29T08:51:48;4.88;;;1.80;;
65018;SDS011;66069;51.164;-114.452;2022-12-29T08:54:14;2.78;;;1.20;;
65018;SDS011;66069;51.164;-114.452;2022-12-29T08:56:40;4.35;;;1.60;;
65018;SDS011;66069;51.164;-114.452;2022-12-29T08:59:07;4.05;;;1.70;;
65018;SDS011;66069;51.164;-114.452;2022-12-29T09:01:33;5.10;;;1.85;;
65018;SDS011;66069;51.164;-114.452;2022-12-29T09:04:04;3.50;;;1.58;;
65018;SDS011;66069;51.164;-114.452;2022-12-29T09:06:30;3.50;;;1.63;;
65018;SDS011;66069;51.164;-114.452;2022-12-29T09:08:57;3.03;;;1.67;;
65018;SDS011;66069;51.164;-114.452;2022-12-29T09:11:24;3.10;;;1.58;;
65018;SDS011;66069;51.164;-114.452;2022-12-29T09:13:51;3.85;;;1.50;;
65018;SDS011;66069;51.164;-114.452;2022-12-29T09:16:19;3.50;;;1.50;;
65018;SDS011;66069;51.164;-114.452;2022-12-29T09:18:47;2.97;;;1.50;;
65018;SDS011;66069;51.164;-114.452;2022-12-29T09:21:13;3.85;;;1.75;;
65018;SDS011;66069;51.164;-114.452;2022-12-29T09:23:40;3.35;;;1.65;;
65018;SDS011;66069;51.164;-114.452;2022-12-29T09:26:07;3.50;;;1.60;;
65018;SDS011;66069;51.164;-114.452;2022-12-29T09:28:34;3.60;;;1.85;;
65018;SDS011;66069;51.164;-114.452;2022-12-29T09:31:00;3.72;;;1.70;;
65018;SDS011;66069;51.164;-114.452;2022-12-29T09:33:27;3.97;;;1.80;;
65018;SDS011;66069;51.164;-114.452;2022-12-29T09:35:54;3.08;;;1.30;;
65018;SDS011;66069;51.164;-114.452;2022-12-29T09:38:22;3.13;;;1.40;;
65018;SDS011;66069;51.164;-114.452;2022-12-29T09:40:54;4.50;;;1.80;;
65018;SDS011;66069;51.164;-114.452;2022-12-29T09:46:25;3.85;;;1.63;;
65018;SDS011;66069;51.164;-114.452;2022-12-29T09:48:59;2.75;;;1.45;;
65018;SDS011;66069;51.164;-114.452;2022-12-29T09:51:49;2.65;;;1.40;;
65018;SDS011;66069;51.164;-114.452;2022-12-29T09:57:04;4.40;;;1.67;;
65018;SDS011;66069;51.164;-114.452;2022-12-29T09:59:40;3.28;;;1.50;;
65018;SDS011;66069;51.164;-114.452;2022-12-29T10:02:15;2.90;;;1.50;;
65018;SDS011;66069;51.164;-114.452;2022-12-29T10:04:56;3.85;;;1.58;;
65018;SDS011;66069;51.164;-114.452;2022-12-29T10:07:40;3.53;;;1.63;;
65018;SDS011;66069;51.164;-114.452;2022-12-29T10:13:21;3.58;;;1.42;;
65018;SDS011;66069;51.164;-114.452;2022-12-29T10:18:49;2.70;;;1.38;;
65018;SDS011;66069;51.164;-114.452;2022-12-29T10:21:32;3.10;;;1.60;;
65018;SDS011;66069;51.164;-114.452;2022-12-29T10:24:12;2.90;;;1.30;;
65018;SDS011;66069;51.164;-114.452;2022-12-29T10:26:40;2.97;;;1.30;;
65018;SDS011;66069;51.164;-114.452;2022-12-29T10:29:42;3.38;;;1.70;;
65018;SDS011;66069;51.164;-114.452;2022-12-29T10:32:15;3.08;;;1.42;;
65018;SDS011;66069;51.164;-114.452;2022-12-29T10:34:44;3.53;;;1.60;;
65018;SDS011;66069;51.164;-114.452;2022-12-29T10:37:27;3.85;;;1.60;;
65018;SDS011;66069;51.164;-114.452;2022-12-29T10:40:16;2.88;;;1.35;;
65018;SDS011;66069;51.164;-114.452;2022-12-29T10:42:52;3.45;;;1.45;;
65018;SDS011;66069;51.164;-114.452;2022-12-29T10:45:21;3.33;;;1.70;;
65018;SDS011;66069;51.164;-114.452;2022-12-29T10:47:56;3.25;;;1.60;;
65018;SDS011;66069;51.164;-114.452;2022-12-29T10:51:01;2.88;;;1.20;;
65018;SDS011;66069;51.164;-114.452;2022-12-29T10:53:52;3.63;;;1.60;;
65018;SDS011;66069;51.164;-114.452;2022-12-29T10:56:27;4.00;;;1.50;;
65018;SDS011;66069;51.164;-114.452;2022-12-29T10:59:03;2.85;;;1.35;;
65018;SDS011;66069;51.164;-114.452;2022-12-29T11:07:19;2.70;;;1.40;;
65018;SDS011;66069;51.164;-114.452;2022-12-29T11:09:47;3.15;;;1.20;;
65018;SDS011;66069;51.164;-114.452;2022-12-29T11:12:21;2.63;;;1.20;;
65018;SDS011;66069;51.164;-114.452;2022-12-29T11:14:47;3.03;;;1.48;;
65018;SDS011;66069;51.164;-114.452;2022-12-29T11:17:28;2.53;;;1.20;;
65018;SDS011;66069;51.164;-114.452;2022-12-29T11:19:54;3.90;;;1.30;;
65018;SDS011;66069;51.164;-114.452;2022-12-29T11:22:22;2.85;;;1.45;;
65018;SDS011;66069;51.164;-114.452;2022-12-29T11:24:50;2.83;;;1.33;;
65018;SDS011;66069;51.164;-114.452;2022-12-29T11:27:22;2.72;;;1.23;;
65018;SDS011;66069;51.164;-114.452;2022-12-29T11:29:50;3.75;;;1.30;;
65018;SDS011;66069;51.164;-114.452;2022-12-29T11:32:19;3.38;;;1.50;;
65018;SDS011;66069;51.164;-114.452;2022-12-29T11:34:49;3.42;;;1.25;;
65018;SDS011;66069;51.164;-114.452;2022-12-29T11:37:17;2.45;;;1.30;;
65018;SDS011;66069;51.164;-114.452;2022-12-29T11:42:23;3.20;;;1.45;;
65018;SDS011;66069;51.164;-114.452;2022-12-29T11:45:26;2.70;;;1.40;;
65018;SDS011;66069;51.164;-114.452;2022-12-29T11:47:55;2.67;;;1.15;;
65018;SDS011;66069;51.164;-114.452;2022-12-29T11:50:31;3.05;;;1.40;;
65018;SDS011;66069;51.164;-114.452;2022-12-29T11:53:00;3.75;;;1.40;;
65018;SDS011;66069;51.164;-114.452;2022-12-29T11:55:31;2.25;;;1.13;;
65018;SDS011;66069;51.164;-114.452;2022-12-29T11:57:58;3.00;;;1.50;;
65018;SDS011;66069;51.164;-114.452;2022-12-29T12:00:28;2.83;;;1.30;;
65018;SDS011;66069;51.164;-114.452;2022-12-29T12:03:06;4.53;;;1.40;;
65018;SDS011;66069;51.164;-114.452;2022-12-29T12:08:15;3.00;;;1.30;;
65018;SDS011;66069;51.164;-114.452;2022-12-29T12:10:49;3.35;;;1.23;;
65018;SDS011;66069;51.164;-114.452;2022-12-29T12:13:33;2.78;;;1.50;;
65018;SDS011;66069;51.164;-114.452;2022-12-29T12:18:59;2.83;;;1.23;;
65018;SDS011;66069;51.164;-114.452;2022-12-29T12:21:38;2.40;;;1.20;;
65018;SDS011;66069;51.164;-114.452;2022-12-29T12:26:50;2.65;;;1.15;;
65018;SDS011;66069;51.164;-114.452;2022-12-29T12:29:34;3.83;;;1.40;;
65018;SDS011;66069;51.164;-114.452;2022-12-29T12:34:40;2.72;;;1.30;;
65018;SDS011;66069;51.164;-114.452;2022-12-29T12:42:44;3.30;;;1.30;;
65018;SDS011;66069;51.164;-114.452;2022-12-29T12:45:32;2.60;;;1.27;;
65018;SDS011;66069;51.164;-114.452;2022-12-29T12:48:20;2.40;;;0.97;;
65018;SDS011;66069;51.164;-114.452;2022-12-29T12:54:05;2.17;;;1.30;;
65018;SDS011;66069;51.164;-114.452;2022-12-29T12:56:56;3.10;;;1.30;;
65018;SDS011;66069;51.164;-114.452;2022-12-29T12:59:38;2.10;;;1.17;;
65018;SDS011;66069;51.164;-114.452;2022-12-29T13:10:42;2.33;;;1.10;;
65018;SDS011;66069;51.164;-114.452;2022-12-29T13:18:59;2.47;;;1.10;;
65018;SDS011;66069;51.164;-114.452;2022-12-29T13:21:37;2.15;;;0.90;;
65018;SDS011;66069;51.164;-114.452;2022-12-29T13:27:05;2.58;;;0.90;;
65018;SDS011;66069;51.164;-114.452;2022-12-29T13:30:01;2.83;;;1.20;;
65018;SDS011;66069;51.164;-114.452;2022-12-29T13:35:35;2.42;;;1.00;;
65018;SDS011;66069;51.164;-114.452;2022-12-29T13:40:40;2.22;;;0.90;;
65018;SDS011;66069;51.164;-114.452;2022-12-29T13:43:11;2.65;;;1.20;;
65018;SDS011;66069;51.164;-114.452;2022-12-29T13:45:40;2.20;;;1.00;;
65018;SDS011;66069;51.164;-114.452;2022-12-29T13:48:15;2.47;;;1.10;;
65018;SDS011;66069;51.164;-114.452;2022-12-29T13:50:51;2.30;;;1.10;;
65018;SDS011;66069;51.164;-114.452;2022-12-29T13:56:20;2.60;;;1.08;;
65018;SDS011;66069;51.164;-114.452;2022-12-29T14:02:26;2.25;;;1.02;;
65018;SDS011;66069;51.164;-114.452;2022-12-29T14:07:44;2.25;;;1.10;;
65018;SDS011;66069;51.164;-114.452;2022-12-29T14:15:40;2.55;;;1.10;;
65018;SDS011;66069;51.164;-114.452;2022-12-29T14:18:13;2.50;;;0.90;;
65018;SDS011;66069;51.164;-114.452;2022-12-29T14:23:26;1.88;;;1.00;;
65018;SDS011;66069;51.164;-114.452;2022-12-29T14:28:36;4.70;;;0.90;;
65018;SDS011;66069;51.164;-114.452;2022-12-29T14:36:39;1.98;;;0.80;;
65018;SDS011;66069;51.164;-114.452;2022-12-29T14:44:32;2.83;;;1.10;;
65018;SDS011;66069;51.164;-114.452;2022-12-29T14:47:00;2.17;;;0.93;;
65018;SDS011;66069;51.164;-114.452;2022-12-29T14:49:39;2.42;;;0.90;;
65018;SDS011;66069;51.164;-114.452;2022-12-29T14:52:19;2.05;;;0.90;;
65018;SDS011;66069;51.164;-114.452;2022-12-29T14:54:49;2.47;;;1.00;;
65018;SDS011;66069;51.164;-114.452;2022-12-29T14:57:31;2.42;;;0.90;;
65018;SDS011;66069;51.164;-114.452;2022-12-29T15:00:22;1.95;;;0.93;;
65018;SDS011;66069;51.164;-114.452;2022-12-29T15:03:07;2.25;;;1.00;;
65018;SDS011;66069;51.164;-114.452;2022-12-29T15:06:13;2.25;;;0.90;;
65018;SDS011;66069;51.164;-114.452;2022-12-29T15:08:37;1.85;;;0.80;;
65018;SDS011;66069;51.164;-114.452;2022-12-29T15:11:28;1.95;;;0.90;;
65018;SDS011;66069;51.164;-114.452;2022-12-29T15:16:56;1.97;;;0.80;;
65018;SDS011;66069;51.164;-114.452;2022-12-29T15:19:23;2.22;;;1.00;;
65018;SDS011;66069;51.164;-114.452;2022-12-29T15:21:50;1.73;;;0.80;;
65018;SDS011;66069;51.164;-114.452;2022-12-29T15:24:19;2.33;;;0.90;;
65018;SDS011;66069;51.164;-114.452;2022-12-29T15:26:47;1.70;;;0.80;;
65018;SDS011;66069;51.164;-114.452;2022-12-29T15:32:14;2.05;;;0.85;;
65018;SDS011;66069;51.164;-114.452;2022-12-29T15:34:42;1.95;;;0.80;;
65018;SDS011;66069;51.164;-114.452;2022-12-29T15:37:16;2.97;;;1.30;;
65018;SDS011;66069;51.164;-114.452;2022-12-29T15:40:03;2.10;;;1.10;;
65018;SDS011;66069;51.164;-114.452;2022-12-29T15:42:41;1.60;;;0.77;;
65018;SDS011;66069;51.164;-114.452;2022-12-29T15:45:12;1.88;;;1.20;;
65018;SDS011;66069;51.164;-114.452;2022-12-29T15:47:40;2.42;;;0.93;;
65018;SDS011;66069;51.164;-114.452;2022-12-29T15:52:58;2.22;;;1.00;;
65018;SDS011;66069;51.164;-114.452;2022-12-29T15:55:33;3.05;;;1.52;;
65018;SDS011;66069;51.164;-114.452;2022-12-29T15:58:02;2.45;;;0.98;;
65018;SDS011;66069;51.164;-114.452;2022-12-29T16:00:32;2.70;;;1.10;;
65018;SDS011;66069;51.164;-114.452;2022-12-29T16:03:00;1.67;;;0.90;;
65018;SDS011;66069;51.164;-114.452;2022-12-29T16:05:35;2.78;;;1.30;;
65018;SDS011;66069;51.164;-114.452;2022-12-29T16:08:15;2.20;;;1.00;;
65018;SDS011;66069;51.164;-114.452;2022-12-29T16:11:03;2.05;;;1.05;;
65018;SDS011;66069;51.164;-114.452;2022-12-29T16:13:53;2.63;;;1.05;;
65018;SDS011;66069;51.164;-114.452;2022-12-29T16:21:32;3.60;;;1.20;;
65018;SDS011;66069;51.164;-114.452;2022-12-29T16:24:34;2.55;;;1.05;;
65018;SDS011;66069;51.164;-114.452;2022-12-29T16:29:33;1.98;;;0.82;;
65018;SDS011;66069;51.164;-114.452;2022-12-29T16:32:01;2.25;;;1.02;;
65018;SDS011;66069;51.164;-114.452;2022-12-29T16:37:05;2.10;;;0.90;;
65018;SDS011;66069;51.164;-114.452;2022-12-29T16:42:43;2.92;;;1.20;;
65018;SDS011;66069;51.164;-114.452;2022-12-29T16:47:47;3.50;;;1.25;;
65018;SDS011;66069;51.164;-114.452;2022-12-29T16:50:34;2.00;;;1.00;;
65018;SDS011;66069;51.164;-114.452;2022-12-29T16:53:03;1.67;;;0.70;;
65018;SDS011;66069;51.164;-114.452;2022-12-29T16:55:31;2.55;;;1.30;;
65018;SDS011;66069;51.164;-114.452;2022-12-29T16:57:58;2.30;;;1.00;;
65018;SDS011;66069;51.164;-114.452;2022-12-29T17:00:27;2.17;;;0.98;;
65018;SDS011;66069;51.164;-114.452;2022-12-29T17:02:59;2.17;;;0.98;;
65018;SDS011;66069;51.164;-114.452;2022-12-29T17:05:27;2.22;;;1.10;;
65018;SDS011;66069;51.164;-114.452;2022-12-29T17:07:54;2.30;;;0.93;;
65018;SDS011;66069;51.164;-114.452;2022-12-29T17:10:25;2.00;;;0.90;;